Time;durP1;ratioP1;P1;durP2;ratioP2;P2;SDS_P1;SDS_P2;PMS_P1;PMS_P2;Temp;Humidity;BMP_temperature;BMP_pressure;BME280_temperature;BME280_humidity;BME280_pressure;Samples;Min_cycle;Max_cycle;Signal;HPM_P1;HPM_P2
2022/03/11 00:00:00;;;;;;;15.85;8.73;;;;;;;;;;5049468;28;20021;-67
2022/03/11 00:02:25;;;;;;;18.27;9.05;;;;;;;;;;5050375;28;20037;-66
2022/03/11 00:04:51;;;;;;;17.42;9.50;;;;;;;;;;5051281;28;20467;-66
2022/03/11 00:07:16;;;;;;;18.02;9.68;;;;;;;;;;5046841;28;20052;-66
2022/03/11 00:09:42;;;;;;;18.23;9.05;;;;;;;;;;5045274;28;20386;-66
2022/03/11 00:12:08;;;;;;;17.95;9.35;;;;;;;;;;5048462;28;20037;-66
2022/03/11 00:14:35;;;;;;;17.40;8.95;;;;;;;;;;5052480;28;20037;-67
2022/03/11 00:17:02;;;;;;;17.90;8.88;;;;;;;;;;5040869;28;20037;-66
2022/03/11 00:19:27;;;;;;;18.83;9.25;;;;;;;;;;5043223;28;20052;-66
2022/03/11 00:21:55;;;;;;;19.55;8.98;;;;;;;;;;5044865;28;20037;-65
2022/03/11 00:24:21;;;;;;;18.75;9.45;;;;;;;;;;5051370;28;20057;-66
2022/03/11 00:26:46;;;;;;;17.65;8.65;;;;;;;;;;5050618;28;20395;-67
2022/03/11 00:29:11;;;;;;;17.05;8.45;;;;;;;;;;5050721;28;20150;-64
2022/03/11 00:31:37;;;;;;;21.92;8.70;;;;;;;;;;5042021;28;20032;-67
2022/03/11 00:34:02;;;;;;;17.23;8.75;;;;;;;;;;5050079;28;20045;-66
2022/03/11 00:36:27;;;;;;;15.93;8.75;;;;;;;;;;5050444;28;20041;-66
2022/03/11 00:38:53;;;;;;;21.17;8.77;;;;;;;;;;5048769;28;20037;-66
2022/03/11 00:41:18;;;;;;;19.27;9.20;;;;;;;;;;5039367;28;20213;-66
2022/03/11 00:43:44;;;;;;;17.17;8.80;;;;;;;;;;5051848;28;20108;-67
2022/03/11 00:46:09;;;;;;;19.20;8.80;;;;;;;;;;5050114;28;20043;-66
2022/03/11 00:48:35;;;;;;;17.42;8.90;;;;;;;;;;5051173;28;20037;-66
2022/03/11 00:51:00;;;;;;;18.63;9.07;;;;;;;;;;5054277;28;20074;-66
2022/03/11 00:53:27;;;;;;;17.48;8.70;;;;;;;;;;5050179;28;20055;-67
2022/03/11 00:55:54;;;;;;;16.20;8.18;;;;;;;;;;5051713;28;20029;-66
2022/03/11 00:58:19;;;;;;;15.15;8.57;;;;;;;;;;5053316;28;20102;-66
2022/03/11 01:00:44;;;;;;;17.80;8.43;;;;;;;;;;5056213;28;20041;-66
2022/03/11 01:03:10;;;;;;;16.67;8.32;;;;;;;;;;5052097;28;20119;-66
2022/03/11 01:05:35;;;;;;;17.67;8.60;;;;;;;;;;5053085;28;20846;-66
2022/03/11 01:08:01;;;;;;;17.50;8.90;;;;;;;;;;5052197;28;20037;-65
2022/03/11 01:10:27;;;;;;;18.17;8.57;;;;;;;;;;5046946;28;20083;-66
2022/03/11 01:12:52;;;;;;;16.08;8.20;;;;;;;;;;5042754;28;20036;-66
2022/03/11 01:15:17;;;;;;;16.52;8.48;;;;;;;;;;5059493;28;20488;-65
2022/03/11 01:17:43;;;;;;;15.95;8.70;;;;;;;;;;5051000;28;20081;-65
2022/03/11 01:20:10;;;;;;;17.92;8.75;;;;;;;;;;5051935;28;20123;-67
2022/03/11 01:22:36;;;;;;;19.55;8.63;;;;;;;;;;5049533;28;20032;-67
2022/03/11 01:25:02;;;;;;;15.70;8.73;;;;;;;;;;5053178;28;20037;-67
2022/03/11 01:27:28;;;;;;;15.43;8.02;;;;;;;;;;5054489;28;20165;-67
2022/03/11 01:29:53;;;;;;;17.92;8.35;;;;;;;;;;5053300;28;20125;-65
2022/03/11 01:32:19;;;;;;;16.50;8.35;;;;;;;;;;5051739;28;20105;-66
2022/03/11 01:34:44;;;;;;;16.92;8.05;;;;;;;;;;5053159;28;20036;-66
2022/03/11 01:37:09;;;;;;;15.35;8.00;;;;;;;;;;5054182;28;20040;-67
2022/03/11 01:39:35;;;;;;;14.95;8.05;;;;;;;;;;5052320;28;20758;-67
2022/03/11 01:42:00;;;;;;;15.63;8.23;;;;;;;;;;5052504;28;20033;-67
2022/03/11 01:44:26;;;;;;;17.35;8.15;;;;;;;;;;5051912;28;20440;-66
2022/03/11 01:46:52;;;;;;;19.67;8.30;;;;;;;;;;5049415;28;20033;-66
2022/03/11 01:49:18;;;;;;;16.73;8.20;;;;;;;;;;5052616;28;20351;-63
2022/03/11 01:51:45;;;;;;;16.23;7.88;;;;;;;;;;5054563;28;20037;-67
2022/03/11 01:54:12;;;;;;;14.43;7.88;;;;;;;;;;5052676;28;20029;-66
2022/03/11 01:56:38;;;;;;;16.15;8.27;;;;;;;;;;5048352;28;20037;-66
2022/03/11 01:59:05;;;;;;;16.42;7.90;;;;;;;;;;5049643;28;20032;-66
2022/03/11 02:01:30;;;;;;;17.20;7.88;;;;;;;;;;5045850;28;20048;-68
2022/03/11 02:03:59;;;;;;;16.00;7.85;;;;;;;;;;5048541;28;20037;-67
2022/03/11 02:06:26;;;;;;;22.83;8.13;;;;;;;;;;5050415;28;20039;-66
2022/03/11 02:08:52;;;;;;;23.48;9.35;;;;;;;;;;5050154;28;20037;-67
2022/03/11 02:11:18;;;;;;;15.13;7.78;;;;;;;;;;5051477;28;20033;-64
2022/03/11 02:13:49;;;;;;;18.45;8.50;;;;;;;;;;5052672;28;20044;-66
2022/03/11 02:16:16;;;;;;;14.85;7.78;;;;;;;;;;5047628;28;20033;-66
2022/03/11 02:18:42;;;;;;;14.52;7.95;;;;;;;;;;5052815;28;20041;-67
2022/03/11 02:21:09;;;;;;;16.63;8.20;;;;;;;;;;5052260;28;20025;-64
2022/03/11 02:23:53;;;;;;;14.95;7.88;;;;;;;;;;5051583;28;20040;-66
2022/03/11 02:26:20;;;;;;;15.43;8.07;;;;;;;;;;5049385;28;20032;-63
2022/03/11 02:28:51;;;;;;;16.70;8.10;;;;;;;;;;5052024;28;20065;-66
2022/03/11 02:31:18;;;;;;;15.82;8.10;;;;;;;;;;5044555;28;20544;-67
2022/03/11 02:33:43;;;;;;;19.45;7.72;;;;;;;;;;5054142;28;20082;-66
2022/03/11 02:36:10;;;;;;;15.73;7.68;;;;;;;;;;5052405;28;20044;-67
2022/03/11 02:38:36;;;;;;;18.05;8.65;;;;;;;;;;5051744;28;20068;-66
2022/03/11 02:41:01;;;;;;;13.85;7.95;;;;;;;;;;5048786;28;20040;-66
2022/03/11 02:43:26;;;;;;;13.55;7.40;;;;;;;;;;5050362;28;20390;-65
2022/03/11 02:45:52;;;;;;;14.57;7.80;;;;;;;;;;5048879;28;20100;-67
2022/03/11 02:48:17;;;;;;;16.55;8.23;;;;;;;;;;5053095;28;20025;-66
2022/03/11 02:50:43;;;;;;;16.85;7.97;;;;;;;;;;5052216;28;20474;-66
2022/03/11 02:53:09;;;;;;;14.93;7.85;;;;;;;;;;5044922;28;20032;-66
2022/03/11 02:55:35;;;;;;;17.27;8.30;;;;;;;;;;5048570;28;20033;-64
2022/03/11 02:58:00;;;;;;;17.60;8.40;;;;;;;;;;5051137;28;20036;-65
2022/03/11 03:00:26;;;;;;;18.05;8.40;;;;;;;;;;5049655;28;20051;-65
2022/03/11 03:02:57;;;;;;;15.35;8.02;;;;;;;;;;5050581;28;20631;-67
2022/03/11 03:05:22;;;;;;;;;;;;;;;;;;5048740;28;20031;-63
2022/03/11 03:07:48;;;;;;;17.77;7.50;;;;;;;;;;5053156;28;19913;-63
2022/03/11 03:10:14;;;;;;;15.77;7.90;;;;;;;;;;5040524;28;20036;-67
2022/03/11 03:12:58;;;;;;;14.27;7.47;;;;;;;;;;5049401;28;20455;-67
2022/03/11 03:15:24;;;;;;;15.45;8.10;;;;;;;;;;5049114;28;20033;-63
2022/03/11 03:17:49;;;;;;;18.90;8.40;;;;;;;;;;5056042;28;20041;-66
2022/03/11 03:20:15;;;;;;;17.02;7.82;;;;;;;;;;5050762;28;20043;-66
2022/03/11 03:22:40;;;;;;;16.27;8.23;;;;;;;;;;5049267;28;20301;-67
2022/03/11 03:25:09;;;;;;;17.02;8.77;;;;;;;;;;5051934;28;20442;-66
2022/03/11 03:27:35;;;;;;;16.50;7.55;;;;;;;;;;5041656;28;20029;-65
2022/03/11 03:30:00;;;;;;;16.40;8.25;;;;;;;;;;5049892;28;20059;-66
2022/03/11 03:32:25;;;;;;;17.98;8.48;;;;;;;;;;5050173;28;20020;-65
2022/03/11 03:34:51;;;;;;;14.75;7.25;;;;;;;;;;5053163;28;20785;-65
2022/03/11 03:37:28;;;;;;;17.95;8.63;;;;;;;;;;5050012;28;20036;-65
2022/03/11 03:39:54;;;;;;;14.48;7.75;;;;;;;;;;5048759;28;20053;-65
2022/03/11 03:42:19;;;;;;;15.02;7.72;;;;;;;;;;5050645;28;20071;-66
2022/03/11 03:44:47;;;;;;;17.88;8.73;;;;;;;;;;5043892;28;20026;-66
2022/03/11 03:47:13;;;;;;;15.38;7.30;;;;;;;;;;5042228;28;20052;-67
2022/03/11 03:49:38;;;;;;;16.70;8.05;;;;;;;;;;5052402;28;20487;-65
2022/03/11 03:52:11;;;;;;;14.60;7.68;;;;;;;;;;5049605;28;20029;-67
2022/03/11 03:54:36;;;;;;;18.58;7.82;;;;;;;;;;5049022;28;20278;-66
2022/03/11 03:57:02;;;;;;;17.60;8.30;;;;;;;;;;5050587;28;20479;-67
2022/03/11 03:59:27;;;;;;;15.20;8.43;;;;;;;;;;5047997;28;20119;-66
2022/03/11 04:01:52;;;;;;;17.50;8.13;;;;;;;;;;5048911;28;20059;-67
2022/03/11 04:04:18;;;;;;;15.40;7.90;;;;;;;;;;5041744;28;20038;-68
2022/03/11 04:06:43;;;;;;;15.77;7.95;;;;;;;;;;5044175;28;20024;-66
2022/03/11 04:09:09;;;;;;;19.23;7.85;;;;;;;;;;5048544;28;20402;-65
2022/03/11 04:11:35;;;;;;;15.88;7.85;;;;;;;;;;5049354;28;20040;-66
2022/03/11 04:14:00;;;;;;;16.45;8.00;;;;;;;;;;5049125;28;20041;-66
2022/03/11 04:16:26;;;;;;;16.25;7.70;;;;;;;;;;5057238;28;20035;-64
2022/03/11 04:18:52;;;;;;;19.88;8.10;;;;;;;;;;5051886;28;20155;-66
2022/03/11 04:21:19;;;;;;;15.60;7.75;;;;;;;;;;5064111;28;20115;-66
2022/03/11 04:23:46;;;;;;;16.63;8.27;;;;;;;;;;5068159;28;20174;-66
2022/03/11 04:26:11;;;;;;;15.90;8.38;;;;;;;;;;5053508;28;20056;-66
2022/03/11 04:28:37;;;;;;;16.25;8.63;;;;;;;;;;5051479;28;20069;-65
2022/03/11 04:31:03;;;;;;;14.65;7.93;;;;;;;;;;5054035;28;20128;-66
2022/03/11 04:33:29;;;;;;;19.25;8.82;;;;;;;;;;5053577;28;20529;-65
2022/03/11 04:35:54;;;;;;;16.63;7.93;;;;;;;;;;5052932;28;20112;-66
2022/03/11 04:38:20;;;;;;;17.40;8.38;;;;;;;;;;5051489;28;20087;-66
2022/03/11 04:40:45;;;;;;;17.48;8.13;;;;;;;;;;5051459;28;20116;-65
2022/03/11 04:43:10;;;;;;;17.48;8.55;;;;;;;;;;5053182;28;20041;-64
2022/03/11 04:45:36;;;;;;;16.95;8.35;;;;;;;;;;5052488;28;20432;-66
2022/03/11 04:48:01;;;;;;;17.30;8.00;;;;;;;;;;5053792;28;20041;-66
2022/03/11 04:50:27;;;;;;;15.27;8.15;;;;;;;;;;5048162;28;20032;-64
2022/03/11 04:52:53;;;;;;;16.88;8.13;;;;;;;;;;5055517;28;20087;-66
2022/03/11 04:55:18;;;;;;;16.75;8.15;;;;;;;;;;5051295;28;20028;-62
2022/03/11 04:57:44;;;;;;;16.10;8.40;;;;;;;;;;5063387;28;20059;-65
2022/03/11 05:00:11;;;;;;;16.88;8.20;;;;;;;;;;5051559;28;20032;-67
2022/03/11 05:02:37;;;;;;;16.90;8.13;;;;;;;;;;5050239;28;20032;-62
2022/03/11 05:05:07;;;;;;;14.68;7.95;;;;;;;;;;5053505;28;20545;-67
2022/03/11 05:07:33;;;;;;;20.83;8.57;;;;;;;;;;5053728;28;20041;-65
2022/03/11 05:09:58;;;;;;;17.33;8.55;;;;;;;;;;5052672;28;20029;-66
2022/03/11 05:12:24;;;;;;;17.15;8.57;;;;;;;;;;5048140;28;20033;-66
2022/03/11 05:14:50;;;;;;;19.02;8.48;;;;;;;;;;5056815;28;20028;-65
2022/03/11 05:17:16;;;;;;;15.73;8.25;;;;;;;;;;5074726;28;20024;-66
2022/03/11 05:19:43;;;;;;;17.23;8.52;;;;;;;;;;5071851;28;20041;-65
2022/03/11 05:22:13;;;;;;;17.25;8.07;;;;;;;;;;5061331;28;20500;-66
2022/03/11 05:24:39;;;;;;;16.17;8.30;;;;;;;;;;5049806;28;20045;-66
2022/03/11 05:27:08;;;;;;;16.67;8.25;;;;;;;;;;5046972;28;20041;-66
2022/03/11 05:29:36;;;;;;;18.88;8.57;;;;;;;;;;5054355;28;20036;-65
2022/03/11 05:32:02;;;;;;;16.67;8.40;;;;;;;;;;5056670;28;20033;-66
2022/03/11 05:34:28;;;;;;;19.00;8.38;;;;;;;;;;5061904;28;20437;-65
2022/03/11 05:36:53;;;;;;;17.52;8.38;;;;;;;;;;5073175;28;20159;-67
2022/03/11 05:39:19;;;;;;;18.10;8.25;;;;;;;;;;5073275;28;20032;-66
2022/03/11 05:41:46;;;;;;;19.23;8.57;;;;;;;;;;5065383;28;20402;-65
2022/03/11 05:44:12;;;;;;;17.35;8.38;;;;;;;;;;5053839;28;20102;-66
2022/03/11 05:46:38;;;;;;;16.92;8.50;;;;;;;;;;5066727;28;20033;-66
2022/03/11 05:49:03;;;;;;;16.00;8.32;;;;;;;;;;5054083;28;20041;-66
2022/03/11 05:51:28;;;;;;;15.40;8.23;;;;;;;;;;5051970;28;20041;-63
2022/03/11 05:53:54;;;;;;;19.40;8.77;;;;;;;;;;5053978;28;20051;-70
2022/03/11 05:56:20;;;;;;;16.65;8.40;;;;;;;;;;5052522;28;20039;-71
2022/03/11 05:58:46;;;;;;;18.60;8.88;;;;;;;;;;5052646;28;20467;-71
2022/03/11 06:01:12;;;;;;;19.55;8.85;;;;;;;;;;5053847;28;20036;-70
2022/03/11 06:03:37;;;;;;;17.90;8.80;;;;;;;;;;5052901;28;20447;-71
2022/03/11 06:06:02;;;;;;;17.60;8.57;;;;;;;;;;5053738;28;20112;-72
2022/03/11 06:08:28;;;;;;;17.88;8.43;;;;;;;;;;5053098;28;20025;-71
2022/03/11 06:10:53;;;;;;;16.70;8.93;;;;;;;;;;5051484;28;20530;-72
2022/03/11 06:13:19;;;;;;;18.00;9.02;;;;;;;;;;5055585;28;20111;-72
2022/03/11 06:15:45;;;;;;;17.83;8.95;;;;;;;;;;5052212;28;20030;-71
2022/03/11 06:18:12;;;;;;;18.60;9.35;;;;;;;;;;5052819;28;20051;-71
2022/03/11 06:20:38;;;;;;;18.33;8.85;;;;;;;;;;5052616;28;20041;-71
2022/03/11 06:23:03;;;;;;;16.70;8.30;;;;;;;;;;5055043;28;20043;-74
2022/03/11 06:25:29;;;;;;;26.20;9.50;;;;;;;;;;5052444;28;20025;-74
2022/03/11 06:27:54;;;;;;;19.35;9.63;;;;;;;;;;5051269;28;20592;-72
2022/03/11 06:30:20;;;;;;;18.63;9.52;;;;;;;;;;5053086;28;20464;-75
2022/03/11 06:32:47;;;;;;;19.60;9.13;;;;;;;;;;5051707;28;20025;-76
2022/03/11 06:35:13;;;;;;;24.23;9.60;;;;;;;;;;5068167;28;20025;-74
2022/03/11 06:37:43;;;;;;;20.75;9.38;;;;;;;;;;5051527;28;20060;-72
2022/03/11 06:40:10;;;;;;;20.85;9.48;;;;;;;;;;5051166;28;20103;-75
2022/03/11 06:42:37;;;;;;;21.25;9.52;;;;;;;;;;5050568;28;20025;-69
2022/03/11 06:45:03;;;;;;;17.55;9.75;;;;;;;;;;5050736;28;20128;-72
2022/03/11 06:47:29;;;;;;;18.40;9.45;;;;;;;;;;5052675;28;20206;-74
2022/03/11 06:49:55;;;;;;;20.85;9.70;;;;;;;;;;5051268;28;20651;-73
2022/03/11 06:52:20;;;;;;;21.30;9.23;;;;;;;;;;5051958;28;20044;-75
2022/03/11 06:54:46;;;;;;;22.42;9.85;;;;;;;;;;5052896;28;20446;-77
2022/03/11 06:57:11;;;;;;;21.55;9.70;;;;;;;;;;5051201;28;20075;-75
2022/03/11 06:59:36;;;;;;;19.48;9.88;;;;;;;;;;5049962;28;20466;-72
2022/03/11 07:02:02;;;;;;;21.35;9.55;;;;;;;;;;5052598;28;20116;-76
2022/03/11 07:04:27;;;;;;;18.70;9.57;;;;;;;;;;5052044;28;20040;-74
2022/03/11 07:06:53;;;;;;;24.90;9.88;;;;;;;;;;5049791;28;20025;-76
2022/03/11 07:09:18;;;;;;;19.85;9.52;;;;;;;;;;5052062;28;20501;-75
2022/03/11 07:11:46;;;;;;;20.92;10.20;;;;;;;;;;5051042;28;20098;-74
2022/03/11 07:14:11;;;;;;;20.40;9.13;;;;;;;;;;5052277;28;20112;-75
2022/03/11 07:16:37;;;;;;;22.00;10.32;;;;;;;;;;5048988;28;20112;-70
2022/03/11 07:19:02;;;;;;;20.38;9.60;;;;;;;;;;5052666;28;20510;-76
2022/03/11 07:21:28;;;;;;;22.80;10.30;;;;;;;;;;5051530;28;20522;-72
2022/03/11 07:23:56;;;;;;;20.50;10.25;;;;;;;;;;5049581;28;20209;-76
2022/03/11 07:26:22;;;;;;;20.00;9.73;;;;;;;;;;5051096;28;20127;-74
2022/03/11 07:28:47;;;;;;;18.52;10.20;;;;;;;;;;5049192;28;20151;-73
2022/03/11 07:31:12;;;;;;;24.42;10.25;;;;;;;;;;5050967;28;20037;-73
2022/03/11 07:33:38;;;;;;;24.35;9.82;;;;;;;;;;5049310;28;20087;-73
2022/03/11 07:36:04;;;;;;;22.02;10.13;;;;;;;;;;5051678;28;20029;-76
2022/03/11 07:38:31;;;;;;;20.20;10.45;;;;;;;;;;5049218;28;20037;-74
2022/03/11 07:40:58;;;;;;;23.08;11.05;;;;;;;;;;5051039;28;20024;-73
2022/03/11 07:43:25;;;;;;;22.27;9.52;;;;;;;;;;5049980;28;20037;-73
2022/03/11 07:45:50;;;;;;;25.05;11.32;;;;;;;;;;5049458;28;20036;-74
2022/03/11 07:48:16;;;;;;;18.95;10.15;;;;;;;;;;5050869;28;20043;-76
2022/03/11 07:50:41;;;;;;;24.75;10.27;;;;;;;;;;5051038;28;20044;-74
2022/03/11 07:53:07;;;;;;;20.88;10.35;;;;;;;;;;5053055;28;20076;-73
2022/03/11 07:55:32;;;;;;;21.60;10.57;;;;;;;;;;5052351;28;20032;-74
2022/03/11 07:57:58;;;;;;;19.48;10.85;;;;;;;;;;5049991;28;20522;-74
2022/03/11 08:00:23;;;;;;;22.65;10.32;;;;;;;;;;5051297;28;20364;-73
2022/03/11 08:02:49;;;;;;;22.55;11.15;;;;;;;;;;5050602;28;20098;-74
2022/03/11 08:05:14;;;;;;;23.63;10.90;;;;;;;;;;5051269;28;20111;-74
2022/03/11 08:07:44;;;;;;;23.73;10.65;;;;;;;;;;5050133;28;20044;-72
2022/03/11 08:10:09;;;;;;;20.92;11.02;;;;;;;;;;5051210;28;20029;-72
2022/03/11 08:12:36;;;;;;;21.73;10.77;;;;;;;;;;5051074;28;20401;-68
2022/03/11 08:15:02;;;;;;;20.80;10.80;;;;;;;;;;5051044;28;20036;-73
2022/03/11 08:17:28;;;;;;;21.75;11.10;;;;;;;;;;5050975;28;20105;-74
2022/03/11 08:19:53;;;;;;;20.00;10.98;;;;;;;;;;5049926;28;20812;-74
2022/03/11 08:22:19;;;;;;;20.83;10.60;;;;;;;;;;5054112;28;20064;-72
2022/03/11 08:24:44;;;;;;;19.52;10.35;;;;;;;;;;5049159;28;20100;-72
2022/03/11 08:27:11;;;;;;;20.10;11.27;;;;;;;;;;5051456;28;20450;-72
2022/03/11 08:29:37;;;;;;;20.23;10.40;;;;;;;;;;5051578;28;20036;-67
2022/03/11 08:32:03;;;;;;;18.67;10.27;;;;;;;;;;5053510;28;20033;-70
2022/03/11 08:34:29;;;;;;;21.52;10.95;;;;;;;;;;5060800;28;20029;-70
2022/03/11 08:36:55;;;;;;;21.25;11.32;;;;;;;;;;5050506;28;20041;-73
2022/03/11 08:39:20;;;;;;;21.38;10.43;;;;;;;;;;5051659;28;20059;-73
2022/03/11 08:41:46;;;;;;;19.73;10.73;;;;;;;;;;5050351;28;20033;-73
2022/03/11 08:44:12;;;;;;;22.20;10.90;;;;;;;;;;5052197;28;20048;-73
2022/03/11 08:46:38;;;;;;;19.73;10.48;;;;;;;;;;5050092;28;20029;-66
2022/03/11 08:49:06;;;;;;;22.83;11.43;;;;;;;;;;5050724;28;20056;-72
2022/03/11 08:51:32;;;;;;;20.92;10.80;;;;;;;;;;5050670;28;20033;-72
2022/03/11 08:53:58;;;;;;;21.38;10.80;;;;;;;;;;5048956;28;20552;-71
2022/03/11 08:56:23;;;;;;;20.52;10.65;;;;;;;;;;5049210;28;20041;-71
2022/03/11 08:58:49;;;;;;;21.08;10.55;;;;;;;;;;5048890;28;20470;-73
2022/03/11 09:01:16;;;;;;;19.98;10.13;;;;;;;;;;5049279;28;20029;-73
2022/03/11 09:03:41;;;;;;;22.00;11.20;;;;;;;;;;5049877;28;20029;-73
2022/03/11 09:06:07;;;;;;;22.13;10.98;;;;;;;;;;5050268;28;20033;-73
2022/03/11 09:08:32;;;;;;;20.13;10.65;;;;;;;;;;5052299;28;20032;-72
2022/03/11 09:10:58;;;;;;;22.58;11.00;;;;;;;;;;5053435;28;20545;-72
2022/03/11 09:13:23;;;;;;;20.10;10.50;;;;;;;;;;5053841;28;20036;-73
2022/03/11 09:15:49;;;;;;;20.95;10.20;;;;;;;;;;5053199;28;20103;-72
2022/03/11 09:18:14;;;;;;;28.00;10.85;;;;;;;;;;5052894;28;20455;-72
2022/03/11 09:20:40;;;;;;;22.33;10.55;;;;;;;;;;5052845;28;20047;-72
2022/03/11 09:23:06;;;;;;;20.00;10.60;;;;;;;;;;5054144;28;20470;-73
2022/03/11 09:25:32;;;;;;;19.52;10.52;;;;;;;;;;5053687;28;20037;-74
2022/03/11 09:27:57;;;;;;;19.40;10.52;;;;;;;;;;5052788;28;20036;-71
2022/03/11 09:30:23;;;;;;;21.45;10.57;;;;;;;;;;5053071;28;20032;-72
2022/03/11 09:32:49;;;;;;;18.67;10.45;;;;;;;;;;5051329;28;20071;-73
2022/03/11 09:35:15;;;;;;;19.77;10.68;;;;;;;;;;5053967;28;20037;-72
2022/03/11 09:37:41;;;;;;;18.15;9.95;;;;;;;;;;5052726;28;20048;-71
2022/03/11 09:40:08;;;;;;;20.10;10.93;;;;;;;;;;5053953;28;20037;-72
2022/03/11 09:42:34;;;;;;;17.25;10.07;;;;;;;;;;5053500;28;20032;-71
2022/03/11 09:44:59;;;;;;;17.83;10.23;;;;;;;;;;5052750;28;20074;-71
2022/03/11 09:47:25;;;;;;;18.33;9.88;;;;;;;;;;5052430;28;20051;-71
2022/03/11 09:49:51;;;;;;;17.75;9.70;;;;;;;;;;5052525;28;20052;-73
2022/03/11 09:52:18;;;;;;;19.65;10.45;;;;;;;;;;5053231;28;20033;-73
2022/03/11 09:54:46;;;;;;;19.52;10.65;;;;;;;;;;5052281;28;20041;-73
2022/03/11 09:57:22;;;;;;;19.90;9.90;;;;;;;;;;5053369;28;20102;-74
2022/03/11 09:59:47;;;;;;;18.13;10.25;;;;;;;;;;5052418;28;20052;-72
2022/03/11 10:02:14;;;;;;;20.55;10.43;;;;;;;;;;5052989;28;20428;-75
2022/03/11 10:04:50;;;;;;;18.50;10.07;;;;;;;;;;5052318;28;20037;-71
2022/03/11 10:07:26;;;;;;;19.23;10.77;;;;;;;;;;5052964;28;20055;-73
2022/03/11 10:09:52;;;;;;;18.42;10.57;;;;;;;;;;5052474;28;20048;-75
2022/03/11 10:12:28;;;;;;;17.20;9.75;;;;;;;;;;5052927;28;20035;-73
2022/03/11 10:14:58;;;;;;;19.58;10.07;;;;;;;;;;5051264;28;20396;-75
2022/03/11 10:17:25;;;;;;;18.13;9.93;;;;;;;;;;5052399;28;20406;-74
2022/03/11 10:20:04;;;;;;;19.38;9.85;;;;;;;;;;5050084;28;20450;-76
2022/03/11 10:22:31;;;;;;;19.70;9.80;;;;;;;;;;5048948;28;20080;-71
2022/03/11 10:25:00;;;;;;;19.88;10.77;;;;;;;;;;5052182;28;20064;-75
2022/03/11 10:27:26;;;;;;;17.13;10.02;;;;;;;;;;5052890;28;20091;-74
2022/03/11 10:29:53;;;;;;;18.80;10.30;;;;;;;;;;5050714;28;20033;-76
2022/03/11 10:32:25;;;;;;;18.52;10.30;;;;;;;;;;5052334;28;20036;-73
2022/03/11 10:34:51;;;;;;;20.30;9.40;;;;;;;;;;5032135;28;20036;-73
2022/03/11 10:37:17;;;;;;;19.02;9.88;;;;;;;;;;5062667;28;20033;-73
2022/03/11 10:39:44;;;;;;;18.05;9.98;;;;;;;;;;5053358;28;20087;-73
2022/03/11 10:42:24;;;;;;;17.95;10.07;;;;;;;;;;5072290;28;20109;-72
2022/03/11 10:44:58;;;;;;;18.00;9.90;;;;;;;;;;5067943;28;20430;-75
2022/03/11 10:47:23;;;;;;;16.85;9.70;;;;;;;;;;5057508;28;20033;-71
2022/03/11 10:49:50;;;;;;;20.48;10.25;;;;;;;;;;5050957;28;20029;-75
2022/03/11 10:52:47;;;;;;;16.67;9.80;;;;;;;;;;5051186;28;20462;-72
2022/03/11 10:55:16;;;;;;;18.42;10.10;;;;;;;;;;5052275;28;20037;-72
2022/03/11 10:57:42;;;;;;;17.75;10.10;;;;;;;;;;5051421;28;20044;-70
2022/03/11 11:00:17;;;;;;;16.98;9.60;;;;;;;;;;5053697;28;20028;-75
2022/03/11 11:02:44;;;;;;;19.63;10.40;;;;;;;;;;5065404;28;20037;-69
2022/03/11 11:05:11;;;;;;;19.70;10.48;;;;;;;;;;5053532;28;20048;-76
2022/03/11 11:07:37;;;;;;;18.45;10.60;;;;;;;;;;5051896;28;20115;-68
2022/03/11 11:10:02;;;;;;;19.95;10.40;;;;;;;;;;5052183;28;20112;-75
2022/03/11 11:12:28;;;;;;;18.92;10.30;;;;;;;;;;5051957;28;20048;-71
2022/03/11 11:14:54;;;;;;;19.77;10.52;;;;;;;;;;5051330;28;20131;-73
2022/03/11 11:17:20;;;;;;;16.95;9.82;;;;;;;;;;5050914;28;20033;-71
2022/03/11 11:19:47;;;;;;;17.33;10.18;;;;;;;;;;5049993;28;20063;-72
2022/03/11 11:22:13;;;;;;;18.75;10.10;;;;;;;;;;5032531;28;20037;-74
2022/03/11 11:24:40;;;;;;;17.85;10.45;;;;;;;;;;5037816;28;20024;-73
2022/03/11 11:27:06;;;;;;;19.38;10.77;;;;;;;;;;5051840;28;20048;-70
2022/03/11 11:29:33;;;;;;;20.48;11.43;;;;;;;;;;5051949;28;20119;-77
2022/03/11 11:32:00;;;;;;;20.67;11.27;;;;;;;;;;5050702;28;20025;-75
2022/03/11 11:34:31;;;;;;;18.58;10.70;;;;;;;;;;5050832;28;20032;-76
2022/03/11 11:36:58;;;;;;;17.15;10.93;;;;;;;;;;5050512;28;20517;-75
2022/03/11 11:39:26;;;;;;;17.42;10.57;;;;;;;;;;5051888;28;20029;-72
2022/03/11 11:41:57;;;;;;;20.30;10.75;;;;;;;;;;5050741;28;20035;-72
2022/03/11 11:44:34;;;;;;;17.48;10.52;;;;;;;;;;5051952;28;20089;-75
2022/03/11 11:47:17;;;;;;;19.02;11.25;;;;;;;;;;5049992;28;20049;-76
2022/03/11 11:49:49;;;;;;;16.83;11.05;;;;;;;;;;5051132;28;20050;-74
2022/03/11 11:52:36;;;;;;;16.85;10.73;;;;;;;;;;5051774;28;20065;-74
2022/03/11 11:55:21;;;;;;;19.02;10.80;;;;;;;;;;5051058;28;20111;-72
2022/03/11 11:57:49;;;;;;;16.80;10.80;;;;;;;;;;5050737;28;20170;-74
2022/03/11 12:00:26;;;;;;;17.75;11.32;;;;;;;;;;5050712;28;20050;-73
2022/03/11 12:02:52;;;;;;;19.92;11.43;;;;;;;;;;5050016;28;20076;-74
2022/03/11 12:05:44;;;;;;;17.83;11.13;;;;;;;;;;5051552;28;20032;-73
2022/03/11 12:08:32;;;;;;;19.60;11.32;;;;;;;;;;5044372;28;20147;-75
2022/03/11 12:10:58;;;;;;;16.52;10.35;;;;;;;;;;5054771;28;20111;-70
2022/03/11 12:13:37;;;;;;;21.33;11.52;;;;;;;;;;5047185;28;20304;-71
2022/03/11 12:16:17;;;;;;;17.20;11.15;;;;;;;;;;5033596;28;20546;-73
2022/03/11 12:18:45;;;;;;;15.52;10.63;;;;;;;;;;5050109;28;20060;-73
2022/03/11 12:21:52;;;;;;;18.25;11.55;;;;;;;;;;5051595;28;20057;-73
2022/03/11 12:24:34;;;;;;;18.75;11.82;;;;;;;;;;5047972;28;20490;-71
2022/03/11 12:27:01;;;;;;;18.25;11.20;;;;;;;;;;5049812;28;20127;-72
2022/03/11 12:29:34;;;;;;;17.38;11.30;;;;;;;;;;5050708;28;20449;-71
2022/03/11 12:32:05;;;;;;;17.60;12.35;;;;;;;;;;5050256;28;20056;-75
2022/03/11 12:34:32;;;;;;;18.55;11.48;;;;;;;;;;5050988;28;20137;-77
2022/03/11 12:36:58;;;;;;;16.35;11.30;;;;;;;;;;5048933;28;20497;-75
2022/03/11 12:39:29;;;;;;;17.20;11.68;;;;;;;;;;5051151;28;20025;-73
2022/03/11 12:41:55;;;;;;;19.00;11.65;;;;;;;;;;5050380;28;20295;-73
2022/03/11 12:44:20;;;;;;;19.73;12.63;;;;;;;;;;5053585;28;20505;-70
2022/03/11 12:46:46;;;;;;;17.02;11.93;;;;;;;;;;5041700;28;20044;-74
2022/03/11 12:49:14;;;;;;;14.77;10.35;;;;;;;;;;5065604;28;20063;-71
2022/03/11 12:51:39;;;;;;;16.50;10.15;;;;;;;;;;5052484;28;20082;-69
2022/03/11 12:54:15;;;;;;;14.45;10.18;;;;;;;;;;5054878;28;20029;-71
2022/03/11 12:56:41;;;;;;;15.60;9.95;;;;;;;;;;5053178;28;20466;-70
2022/03/11 12:59:07;;;;;;;17.10;10.75;;;;;;;;;;5055345;28;20086;-72
2022/03/11 13:01:35;;;;;;;16.00;10.88;;;;;;;;;;5054632;28;20025;-73
2022/03/11 13:04:01;;;;;;;18.25;10.93;;;;;;;;;;5053570;28;20597;-75
2022/03/11 13:06:26;;;;;;;16.92;11.23;;;;;;;;;;5053839;28;20119;-73
2022/03/11 13:08:51;;;;;;;16.70;10.63;;;;;;;;;;5053863;28;20362;-75
2022/03/11 13:11:17;;;;;;;15.80;10.43;;;;;;;;;;5054196;28;20031;-75
2022/03/11 13:13:43;;;;;;;18.73;11.00;;;;;;;;;;5052872;28;20454;-74
2022/03/11 13:16:09;;;;;;;17.63;10.40;;;;;;;;;;5054535;28;20041;-75
2022/03/11 13:18:37;;;;;;;16.90;11.07;;;;;;;;;;5054522;28;20032;-73
2022/03/11 13:21:10;;;;;;;16.77;10.55;;;;;;;;;;5054022;28;20052;-76
2022/03/11 13:23:44;;;;;;;16.58;10.40;;;;;;;;;;5054137;28;20028;-69
2022/03/11 13:26:18;;;;;;;16.05;10.57;;;;;;;;;;5054221;28;20033;-76
2022/03/11 13:28:49;;;;;;;19.92;10.60;;;;;;;;;;5051574;28;20466;-76
2022/03/11 13:31:24;;;;;;;;;;;;;;;;;;5054373;28;20033;-75
2022/03/11 13:34:01;;;;;;;15.80;10.43;;;;;;;;;;5052937;28;19913;-77
2022/03/11 13:36:31;;;;;;;19.13;10.38;;;;;;;;;;5053499;28;20437;-73
2022/03/11 13:39:04;;;;;;;16.85;10.93;;;;;;;;;;5053196;28;20021;-75
2022/03/11 13:41:46;;;;;;;16.92;10.88;;;;;;;;;;5053384;28;20040;-73
2022/03/11 13:44:23;;;;;;;17.42;11.25;;;;;;;;;;5052511;28;20167;-75
2022/03/11 13:47:03;;;;;;;17.33;11.05;;;;;;;;;;5052748;28;20037;-74
2022/03/11 13:49:51;;;;;;;;;;;;;;;;;;5071358;28;20043;-74
2022/03/11 13:52:19;;;;;;;18.80;10.88;;;;;;;;;;5072983;28;19916;-77
2022/03/11 13:54:47;;;;;;;17.27;11.43;;;;;;;;;;5069744;28;20032;-74
2022/03/11 13:57:22;;;;;;;18.08;10.93;;;;;;;;;;5065349;28;20024;-73
2022/03/11 13:59:54;;;;;;;19.25;11.20;;;;;;;;;;5052649;28;20036;-75
2022/03/11 14:02:25;;;;;;;19.42;11.35;;;;;;;;;;5052813;28;20467;-70
2022/03/11 14:05:10;;;;;;;18.02;10.93;;;;;;;;;;5052637;28;20033;-72
2022/03/11 14:07:37;;;;;;;18.65;11.20;;;;;;;;;;5052748;28;20119;-67
2022/03/11 14:10:03;;;;;;;16.73;11.35;;;;;;;;;;5051746;28;20103;-73
2022/03/11 14:12:29;;;;;;;16.60;11.25;;;;;;;;;;5052513;28;20028;-75
2022/03/11 14:15:12;;;;;;;19.20;11.00;;;;;;;;;;5051640;28;20566;-72
2022/03/11 14:17:37;;;;;;;18.20;11.35;;;;;;;;;;5052103;28;20024;-67
2022/03/11 14:20:05;;;;;;;18.27;11.23;;;;;;;;;;5052290;28;20414;-71
2022/03/11 14:22:31;;;;;;;18.92;11.77;;;;;;;;;;5051793;28;20071;-72
2022/03/11 14:24:57;;;;;;;18.45;11.43;;;;;;;;;;5052117;28;20021;-72
2022/03/11 14:27:22;;;;;;;19.05;10.68;;;;;;;;;;5051930;28;20033;-73